sensor_id;sensor_type;location;lat;lon;timestamp;pressure;altitude;pressure_sealevel;temperature;humidity
21730;BME280;11027;51.030;13.812;2023-08-07T00:00:19;98991.88;;;15.57;99.97
21730;BME280;11027;51.030;13.812;2023-08-07T00:02:44;98996.09;;;15.59;99.97
21730;BME280;11027;51.030;13.812;2023-08-07T00:05:10;98993.06;;;15.61;100.00
21730;BME280;11027;51.030;13.812;2023-08-07T00:07:35;98997.75;;;15.60;100.00
21730;BME280;11027;51.030;13.812;2023-08-07T00:10:00;98995.22;;;15.59;100.00
21730;BME280;11027;51.030;13.812;2023-08-07T00:12:26;98994.25;;;15.65;100.00
21730;BME280;11027;51.030;13.812;2023-08-07T00:14:52;98997.00;;;15.65;99.93
21730;BME280;11027;51.030;13.812;2023-08-07T00:17:17;99004.56;;;15.58;100.00
21730;BME280;11027;51.030;13.812;2023-08-07T00:19:42;99009.22;;;15.57;100.00
21730;BME280;11027;51.030;13.812;2023-08-07T00:22:08;98997.88;;;15.54;100.00
21730;BME280;11027;51.030;13.812;2023-08-07T00:24:33;99003.38;;;15.54;100.00
21730;BME280;11027;51.030;13.812;2023-08-07T00:26:58;99002.88;;;15.57;100.00
21730;BME280;11027;51.030;13.812;2023-08-07T00:29:24;99005.16;;;15.60;100.00
21730;BME280;11027;51.030;13.812;2023-08-07T00:31:49;99002.75;;;15.64;99.81
21730;BME280;11027;51.030;13.812;2023-08-07T00:34:15;99009.66;;;15.66;99.28
21730;BME280;11027;51.030;13.812;2023-08-07T00:36:40;99003.94;;;15.68;98.75
21730;BME280;11027;51.030;13.812;2023-08-07T00:39:05;99014.56;;;15.64;98.88
21730;BME280;11027;51.030;13.812;2023-08-07T00:41:31;99006.22;;;15.59;98.83
21730;BME280;11027;51.030;13.812;2023-08-07T00:43:56;99003.47;;;15.59;99.00
21730;BME280;11027;51.030;13.812;2023-08-07T00:46:21;99003.47;;;15.59;99.12
21730;BME280;11027;51.030;13.812;2023-08-07T00:48:47;99006.69;;;15.56;98.94
21730;BME280;11027;51.030;13.812;2023-08-07T00:51:12;99009.44;;;15.56;99.00
21730;BME280;11027;51.030;13.812;2023-08-07T00:53:38;99012.19;;;15.56;99.27
21730;BME280;11027;51.030;13.812;2023-08-07T00:56:05;99017.19;;;15.59;99.32
21730;BME280;11027;51.030;13.812;2023-08-07T00:58:31;99013.63;;;15.58;99.28
21730;BME280;11027;51.030;13.812;2023-08-07T01:00:57;99005.03;;;15.55;99.47
21730;BME280;11027;51.030;13.812;2023-08-07T01:03:23;99006.13;;;15.54;99.86
21730;BME280;11027;51.030;13.812;2023-08-07T01:05:48;99011.59;;;15.54;99.44
21730;BME280;11027;51.030;13.812;2023-08-07T01:08:13;99007.75;;;15.55;99.34
21730;BME280;11027;51.030;13.812;2023-08-07T01:13:30;99019.00;;;15.53;99.83
21730;BME280;11027;51.030;13.812;2023-08-07T01:16:02;99002.66;;;15.47;99.54
21730;BME280;11027;51.030;13.812;2023-08-07T01:18:32;98996.56;;;15.45;100.00
21730;BME280;11027;51.030;13.812;2023-08-07T01:20:59;98999.81;;;15.42;99.81
21730;BME280;11027;51.030;13.812;2023-08-07T01:23:24;99014.34;;;15.42;100.00
21730;BME280;11027;51.030;13.812;2023-08-07T01:25:50;98998.13;;;15.40;100.00
21730;BME280;11027;51.030;13.812;2023-08-07T01:28:36;99003.63;;;15.40;100.00
21730;BME280;11027;51.030;13.812;2023-08-07T01:31:07;98998.13;;;15.40;100.00
21730;BME280;11027;51.030;13.812;2023-08-07T01:33:59;99003.16;;;15.44;100.00
21730;BME280;11027;51.030;13.812;2023-08-07T01:36:27;98999.81;;;15.42;100.00
21730;BME280;11027;51.030;13.812;2023-08-07T01:38:56;99002.78;;;15.40;100.00
21730;BME280;11027;51.030;13.812;2023-08-07T01:41:22;99002.19;;;15.38;100.00
21730;BME280;11027;51.030;13.812;2023-08-07T01:43:47;98993.13;;;15.37;100.00
21730;BME280;11027;51.030;13.812;2023-08-07T01:46:13;98995.63;;;15.39;100.00
21730;BME280;11027;51.030;13.812;2023-08-07T01:48:38;99003.75;;;15.34;100.00
21730;BME280;11027;51.030;13.812;2023-08-07T01:51:03;99003.38;;;15.30;100.00
21730;BME280;11027;51.030;13.812;2023-08-07T01:53:28;99012.72;;;15.29;100.00
21730;BME280;11027;51.030;13.812;2023-08-07T01:55:54;99003.03;;;15.27;100.00
21730;BME280;11027;51.030;13.812;2023-08-07T01:58:19;99000.53;;;15.25;100.00
21730;BME280;11027;51.030;13.812;2023-08-07T02:00:44;99008.19;;;15.23;100.00
21730;BME280;11027;51.030;13.812;2023-08-07T02:03:10;99015.44;;;15.17;100.00
21730;BME280;11027;51.030;13.812;2023-08-07T02:05:35;99015.69;;;15.16;100.00
21730;BME280;11027;51.030;13.812;2023-08-07T02:08:00;99019.03;;;15.18;100.00
21730;BME280;11027;51.030;13.812;2023-08-07T02:10:26;99019.25;;;15.16;100.00
21730;BME280;11027;51.030;13.812;2023-08-07T02:12:51;99019.97;;;15.12;100.00
21730;BME280;11027;51.030;13.812;2023-08-07T02:15:16;99017.59;;;15.15;100.00
21730;BME280;11027;51.030;13.812;2023-08-07T02:17:41;99020.44;;;15.20;100.00
21730;BME280;11027;51.030;13.812;2023-08-07T02:20:08;99027.97;;;15.25;100.00
21730;BME280;11027;51.030;13.812;2023-08-07T02:22:33;99017.97;;;15.19;100.00
21730;BME280;11027;51.030;13.812;2023-08-07T02:24:58;99019.63;;;15.20;100.00
21730;BME280;11027;51.030;13.812;2023-08-07T02:27:24;99025.47;;;15.24;100.00
21730;BME280;11027;51.030;13.812;2023-08-07T02:29:49;99019.03;;;15.30;100.00
21730;BME280;11027;51.030;13.812;2023-08-07T02:32:16;99022.38;;;15.32;100.00
21730;BME280;11027;51.030;13.812;2023-08-07T02:34:41;99021.03;;;15.34;100.00
21730;BME280;11027;51.030;13.812;2023-08-07T02:37:06;99012.22;;;15.32;100.00
21730;BME280;11027;51.030;13.812;2023-08-07T02:39:31;99010.44;;;15.38;100.00
21730;BME280;11027;51.030;13.812;2023-08-07T02:41:57;99010.78;;;15.42;100.00
21730;BME280;11027;51.030;13.812;2023-08-07T02:44:22;99016.63;;;15.45;100.00
21730;BME280;11027;51.030;13.812;2023-08-07T02:46:47;99019.72;;;15.49;100.00
21730;BME280;11027;51.030;13.812;2023-08-07T02:49:13;99019.13;;;15.47;100.00
21730;BME280;11027;51.030;13.812;2023-08-07T02:51:38;99021.25;;;15.45;100.00
21730;BME280;11027;51.030;13.812;2023-08-07T02:54:03;99024.59;;;15.47;100.00
21730;BME280;11027;51.030;13.812;2023-08-07T02:56:28;99022.94;;;15.46;100.00
21730;BME280;11027;51.030;13.812;2023-08-07T02:58:54;99015.31;;;15.48;100.00
21730;BME280;11027;51.030;13.812;2023-08-07T03:01:19;99016.28;;;15.42;100.00
21730;BME280;11027;51.030;13.812;2023-08-07T03:03:46;99020.56;;;15.37;100.00
21730;BME280;11027;51.030;13.812;2023-08-07T03:06:11;99020.22;;;15.34;100.00
21730;BME280;11027;51.030;13.812;2023-08-07T03:08:36;99028.31;;;15.29;100.00
21730;BME280;11027;51.030;13.812;2023-08-07T03:11:02;99026.88;;;15.26;100.00
21730;BME280;11027;51.030;13.812;2023-08-07T03:13:27;99027.63;;;15.22;100.00
21730;BME280;11027;51.030;13.812;2023-08-07T03:16:05;99019.16;;;15.23;100.00
21730;BME280;11027;51.030;13.812;2023-08-07T03:18:31;99029.63;;;15.26;100.00
21730;BME280;11027;51.030;13.812;2023-08-07T03:20:57;99044.91;;;15.22;100.00
21730;BME280;11027;51.030;13.812;2023-08-07T03:23:26;99074.84;;;15.12;100.00
21730;BME280;11027;51.030;13.812;2023-08-07T03:26:06;99085.06;;;14.93;100.00
21730;BME280;11027;51.030;13.812;2023-08-07T03:28:32;99086.47;;;14.84;100.00
21730;BME280;11027;51.030;13.812;2023-08-07T03:30:57;99093.28;;;14.81;100.00
21730;BME280;11027;51.030;13.812;2023-08-07T03:33:22;99103.72;;;14.72;100.00
21730;BME280;11027;51.030;13.812;2023-08-07T03:35:48;99099.03;;;14.61;100.00
21730;BME280;11027;51.030;13.812;2023-08-07T03:38:13;99105.41;;;14.55;100.00
21730;BME280;11027;51.030;13.812;2023-08-07T03:40:38;99107.19;;;14.49;100.00
21730;BME280;11027;51.030;13.812;2023-08-07T03:43:03;99110.41;;;14.46;100.00
21730;BME280;11027;51.030;13.812;2023-08-07T03:45:29;99109.78;;;14.44;100.00
21730;BME280;11027;51.030;13.812;2023-08-07T03:47:54;99119.06;;;14.43;100.00
21730;BME280;11027;51.030;13.812;2023-08-07T03:50:19;99111.69;;;14.44;100.00
21730;BME280;11027;51.030;13.812;2023-08-07T03:52:45;99115.28;;;14.44;100.00
21730;BME280;11027;51.030;13.812;2023-08-07T03:55:10;99120.38;;;14.40;100.00
21730;BME280;11027;51.030;13.812;2023-08-07T03:57:35;99122.41;;;14.45;100.00
21730;BME280;11027;51.030;13.812;2023-08-07T04:00:00;99116.94;;;14.45;100.00
21730;BME280;11027;51.030;13.812;2023-08-07T04:02:26;99119.69;;;14.45;100.00
21730;BME280;11027;51.030;13.812;2023-08-07T04:04:52;99124.22;;;14.51;100.00
21730;BME280;11027;51.030;13.812;2023-08-07T04:07:18;99131.41;;;14.52;100.00
21730;BME280;11027;51.030;13.812;2023-08-07T04:09:43;99121.50;;;14.51;100.00
21730;BME280;11027;51.030;13.812;2023-08-07T04:12:08;99122.31;;;14.52;100.00
21730;BME280;11027;51.030;13.812;2023-08-07T04:14:34;99124.41;;;14.56;100.00
21730;BME280;11027;51.030;13.812;2023-08-07T04:16:59;99122.88;;;14.60;100.00
21730;BME280;11027;51.030;13.812;2023-08-07T04:19:25;99128.97;;;14.63;100.00
21730;BME280;11027;51.030;13.812;2023-08-07T04:21:51;99123.94;;;14.59;100.00
21730;BME280;11027;51.030;13.812;2023-08-07T04:24:16;99128.97;;;14.63;100.00
21730;BME280;11027;51.030;13.812;2023-08-07T04:26:41;99135.28;;;14.63;100.00
21730;BME280;11027;51.030;13.812;2023-08-07T04:29:06;99137.31;;;14.68;100.00
21730;BME280;11027;51.030;13.812;2023-08-07T04:31:32;99139.00;;;14.69;100.00
21730;BME280;11027;51.030;13.812;2023-08-07T04:33:58;99139.00;;;14.69;100.00
21730;BME280;11027;51.030;13.812;2023-08-07T04:36:23;99146.28;;;14.75;100.00
21730;BME280;11027;51.030;13.812;2023-08-07T04:38:49;99148.56;;;14.78;100.00
21730;BME280;11027;51.030;13.812;2023-08-07T04:41:15;99148.31;;;14.79;100.00
21730;BME280;11027;51.030;13.812;2023-08-07T04:43:40;99151.91;;;14.80;100.00
21730;BME280;11027;51.030;13.812;2023-08-07T04:46:07;99154.31;;;14.88;100.00
21730;BME280;11027;51.030;13.812;2023-08-07T04:48:33;99155.66;;;14.97;100.00
21730;BME280;11027;51.030;13.812;2023-08-07T04:50:59;99156.72;;;14.96;100.00
21730;BME280;11027;51.030;13.812;2023-08-07T04:53:24;99150.78;;;14.99;100.00
21730;BME280;11027;51.030;13.812;2023-08-07T04:55:49;99160.81;;;15.06;100.00
21730;BME280;11027;51.030;13.812;2023-08-07T04:58:14;99159.50;;;15.08;100.00
21730;BME280;11027;51.030;13.812;2023-08-07T05:00:40;99158.28;;;15.04;100.00
21730;BME280;11027;51.030;13.812;2023-08-07T05:03:05;99162.47;;;15.07;100.00
21730;BME280;11027;51.030;13.812;2023-08-07T05:05:30;99160.31;;;15.09;100.00
21730;BME280;11027;51.030;13.812;2023-08-07T05:07:58;99165.97;;;15.14;100.00
21730;BME280;11027;51.030;13.812;2023-08-07T05:10:23;99162.75;;;15.17;100.00
21730;BME280;11027;51.030;13.812;2023-08-07T05:12:48;99166.09;;;15.19;100.00
21730;BME280;11027;51.030;13.812;2023-08-07T05:15:20;99168.34;;;15.22;100.00
21730;BME280;11027;51.030;13.812;2023-08-07T05:17:45;99177.56;;;15.28;100.00
21730;BME280;11027;51.030;13.812;2023-08-07T05:20:10;99174.44;;;15.24;100.00
21730;BME280;11027;51.030;13.812;2023-08-07T05:22:36;99175.97;;;15.20;100.00
21730;BME280;11027;51.030;13.812;2023-08-07T05:25:02;99177.53;;;15.16;100.00
21730;BME280;11027;51.030;13.812;2023-08-07T05:27:28;99178.72;;;15.20;100.00
21730;BME280;11027;51.030;13.812;2023-08-07T05:29:53;99182.91;;;15.23;100.00
21730;BME280;11027;51.030;13.812;2023-08-07T05:32:18;99183.75;;;15.23;100.00
21730;BME280;11027;51.030;13.812;2023-08-07T05:34:44;99185.41;;;15.24;100.00
21730;BME280;11027;51.030;13.812;2023-08-07T05:37:09;99192.34;;;15.27;100.00
21730;BME280;11027;51.030;13.812;2023-08-07T05:39:34;99192.09;;;15.28;100.00
21730;BME280;11027;51.030;13.812;2023-08-07T05:42:00;99204.16;;;15.27;100.00
21730;BME280;11027;51.030;13.812;2023-08-07T05:44:26;99192.34;;;15.27;100.00
21730;BME280;11027;51.030;13.812;2023-08-07T05:46:52;99197.97;;;15.32;100.00
21730;BME280;11027;51.030;13.812;2023-08-07T05:49:17;99203.34;;;15.38;100.00
21730;BME280;11027;51.030;13.812;2023-08-07T05:51:42;99212.16;;;15.40;100.00
21730;BME280;11027;51.030;13.812;2023-08-07T05:54:07;99212.16;;;15.40;100.00
21730;BME280;11027;51.030;13.812;2023-08-07T05:56:33;99221.38;;;15.46;100.00
21730;BME280;11027;51.030;13.812;2023-08-07T05:58:58;99209.56;;;15.46;99.35
21730;BME280;11027;51.030;13.812;2023-08-07T06:01:24;99211.81;;;15.49;98.85
21730;BME280;11027;51.030;13.812;2023-08-07T06:03:54;99212.56;;;15.56;99.02
21730;BME280;11027;51.030;13.812;2023-08-07T06:06:19;99216.97;;;15.57;98.09
21730;BME280;11027;51.030;13.812;2023-08-07T06:08:45;99211.84;;;15.60;97.04
21730;BME280;11027;51.030;13.812;2023-08-07T06:11:10;99222.00;;;15.60;96.55
21730;BME280;11027;51.030;13.812;2023-08-07T06:13:35;99234.41;;;15.63;96.53
21730;BME280;11027;51.030;13.812;2023-08-07T06:16:01;99226.19;;;15.63;96.15
21730;BME280;11027;51.030;13.812;2023-08-07T06:18:26;99239.69;;;15.64;95.83
21730;BME280;11027;51.030;13.812;2023-08-07T06:20:51;99242.31;;;15.71;96.13
21730;BME280;11027;51.030;13.812;2023-08-07T06:23:16;99242.09;;;15.72;94.99
21730;BME280;11027;51.030;13.812;2023-08-07T06:25:42;99248.78;;;15.76;94.12
21730;BME280;11027;51.030;13.812;2023-08-07T06:28:08;99252.00;;;15.73;93.90
21730;BME280;11027;51.030;13.812;2023-08-07T06:30:33;99257.50;;;15.73;93.95
21730;BME280;11027;51.030;13.812;2023-08-07T06:32:58;99255.13;;;15.77;94.31
21730;BME280;11027;51.030;13.812;2023-08-07T06:35:23;99261.47;;;15.77;93.69
21730;BME280;11027;51.030;13.812;2023-08-07T06:37:49;99272.06;;;15.74;92.92
21730;BME280;11027;51.030;13.812;2023-08-07T06:40:14;99258.72;;;15.77;92.22
21730;BME280;11027;51.030;13.812;2023-08-07T06:42:39;99268.97;;;15.82;92.42
21730;BME280;11027;51.030;13.812;2023-08-07T06:45:05;99275.31;;;15.83;91.16
21730;BME280;11027;51.030;13.812;2023-08-07T06:47:31;99263.84;;;15.86;90.98
21730;BME280;11027;51.030;13.812;2023-08-07T06:49:56;99278.78;;;15.90;90.61
21730;BME280;11027;51.030;13.812;2023-08-07T06:52:22;99284.03;;;15.91;89.95
21730;BME280;11027;51.030;13.812;2023-08-07T06:54:47;99280.59;;;15.96;89.30
21730;BME280;11027;51.030;13.812;2023-08-07T06:57:12;99286.78;;;16.03;89.70
21730;BME280;11027;51.030;13.812;2023-08-07T06:59:39;99283.69;;;16.11;89.39
21730;BME280;11027;51.030;13.812;2023-08-07T07:02:04;99281.91;;;16.17;87.88
21730;BME280;11027;51.030;13.812;2023-08-07T07:04:29;99287.75;;;16.20;87.30
21730;BME280;11027;51.030;13.812;2023-08-07T07:06:55;99286.91;;;16.32;87.54
21730;BME280;11027;51.030;13.812;2023-08-07T07:09:20;99288.34;;;16.34;86.18
21730;BME280;11027;51.030;13.812;2023-08-07T07:11:45;99278.19;;;16.35;85.47
21730;BME280;11027;51.030;13.812;2023-08-07T07:14:11;99281.53;;;16.37;85.21
21730;BME280;11027;51.030;13.812;2023-08-07T07:16:36;99286.06;;;16.43;85.33
21730;BME280;11027;51.030;13.812;2023-08-07T07:19:02;99297.66;;;16.45;85.79
21730;BME280;11027;51.030;13.812;2023-08-07T07:21:28;99302.56;;;16.43;84.29
21730;BME280;11027;51.030;13.812;2023-08-07T07:23:54;99296.59;;;16.46;84.50
21730;BME280;11027;51.030;13.812;2023-08-07T07:26:19;99293.94;;;16.51;84.78
21730;BME280;11027;51.030;13.812;2023-08-07T07:28:44;99313.91;;;16.58;84.42
21730;BME280;11027;51.030;13.812;2023-08-07T07:31:10;99298.00;;;16.60;83.58
21730;BME280;11027;51.030;13.812;2023-08-07T07:33:37;99306.84;;;16.63;83.61
21730;BME280;11027;51.030;13.812;2023-08-07T07:36:04;99299.66;;;16.62;83.91
21730;BME280;11027;51.030;13.812;2023-08-07T07:38:30;99315.78;;;16.70;83.77
21730;BME280;11027;51.030;13.812;2023-08-07T07:40:56;99305.88;;;16.69;82.68
21730;BME280;11027;51.030;13.812;2023-08-07T07:43:22;99313.63;;;16.72;83.07
21730;BME280;11027;51.030;13.812;2023-08-07T07:45:47;99311.59;;;16.79;81.42
21730;BME280;11027;51.030;13.812;2023-08-07T07:48:13;99328.38;;;16.89;81.54
21730;BME280;11027;51.030;13.812;2023-08-07T07:50:38;99325.47;;;16.84;80.59
21730;BME280;11027;51.030;13.812;2023-08-07T07:53:03;99324.28;;;16.80;80.24
21730;BME280;11027;51.030;13.812;2023-08-07T07:55:28;99338.19;;;16.85;79.70
21730;BME280;11027;51.030;13.812;2023-08-07T07:57:54;99332.69;;;16.85;79.20
21730;BME280;11027;51.030;13.812;2023-08-07T08:00:20;99337.22;;;16.91;79.28
21730;BME280;11027;51.030;13.812;2023-08-07T08:02:47;99343.19;;;16.88;79.27
21730;BME280;11027;51.030;13.812;2023-08-07T08:05:12;99347.25;;;16.97;79.65
21730;BME280;11027;51.030;13.812;2023-08-07T08:07:38;99349.25;;;17.02;79.47
21730;BME280;11027;51.030;13.812;2023-08-07T08:10:06;99356.31;;;16.98;79.13
21730;BME280;11027;51.030;13.812;2023-08-07T08:12:32;99341.47;;;17.11;79.88
21730;BME280;11027;51.030;13.812;2023-08-07T08:14:57;99365.00;;;17.18;79.02
21730;BME280;11027;51.030;13.812;2023-08-07T08:17:23;99357.50;;;17.14;78.58
21730;BME280;11027;51.030;13.812;2023-08-07T08:19:48;99350.94;;;17.03;76.96
21730;BME280;11027;51.030;13.812;2023-08-07T08:22:13;99362.78;;;17.04;77.47
21730;BME280;11027;51.030;13.812;2023-08-07T08:24:38;99357.50;;;17.14;77.16
21730;BME280;11027;51.030;13.812;2023-08-07T08:27:04;99363.69;;;17.21;76.67
21730;BME280;11027;51.030;13.812;2023-08-07T08:29:29;99368.34;;;17.20;75.84
21730;BME280;11027;51.030;13.812;2023-08-07T08:31:54;99370.88;;;17.22;75.33
21730;BME280;11027;51.030;13.812;2023-08-07T08:34:20;99377.47;;;17.21;75.46
21730;BME280;11027;51.030;13.812;2023-08-07T08:36:46;99398.03;;;17.18;74.44
21730;BME280;11027;51.030;13.812;2023-08-07T08:39:12;99387.16;;;17.12;73.81
21730;BME280;11027;51.030;13.812;2023-08-07T08:41:37;99377.84;;;17.13;73.97
21730;BME280;11027;51.030;13.812;2023-08-07T08:44:03;99393.84;;;17.16;74.97
21730;BME280;11027;51.030;13.812;2023-08-07T08:46:31;99388.84;;;17.13;74.89
21730;BME280;11027;51.030;13.812;2023-08-07T08:48:57;99383.81;;;17.10;75.22
21730;BME280;11027;51.030;13.812;2023-08-07T08:51:24;99374.50;;;17.11;75.23
21730;BME280;11027;51.030;13.812;2023-08-07T08:53:53;99387.38;;;17.22;75.90
21730;BME280;11027;51.030;13.812;2023-08-07T08:56:21;99385.53;;;17.39;76.34
21730;BME280;11027;51.030;13.812;2023-08-07T08:58:48;99373.16;;;17.54;75.61
21730;BME280;11027;51.030;13.812;2023-08-07T09:01:14;99375.47;;;17.74;75.45
21730;BME280;11027;51.030;13.812;2023-08-07T09:03:40;99391.13;;;17.85;74.44
21730;BME280;11027;51.030;13.812;2023-08-07T09:06:06;99395.31;;;17.88;73.40
21730;BME280;11027;51.030;13.812;2023-08-07T09:08:32;99402.13;;;17.85;73.29
21730;BME280;11027;51.030;13.812;2023-08-07T09:10:58;99396.63;;;17.85;73.74
21730;BME280;11027;51.030;13.812;2023-08-07T09:13:24;99403.94;;;17.79;73.33
21730;BME280;11027;51.030;13.812;2023-08-07T09:15:52;99398.88;;;17.59;72.83
21730;BME280;11027;51.030;13.812;2023-08-07T09:18:18;99420.56;;;17.56;73.61
21730;BME280;11027;51.030;13.812;2023-08-07T09:20:46;99424.06;;;17.51;73.55
21730;BME280;11027;51.030;13.812;2023-08-07T09:23:11;99401.69;;;17.48;74.28
21730;BME280;11027;51.030;13.812;2023-08-07T09:25:37;99416.63;;;17.52;74.09
21730;BME280;11027;51.030;13.812;2023-08-07T09:28:06;99400.38;;;17.67;73.19
21730;BME280;11027;51.030;13.812;2023-08-07T09:30:34;99396.97;;;17.89;73.67
21730;BME280;11027;51.030;13.812;2023-08-07T09:33:00;99395.16;;;18.11;73.25
21730;BME280;11027;51.030;13.812;2023-08-07T09:35:26;99391.84;;;18.26;71.04
21730;BME280;11027;51.030;13.812;2023-08-07T09:37:52;99408.72;;;18.30;70.13
21730;BME280;11027;51.030;13.812;2023-08-07T09:40:19;99405.53;;;18.21;70.03
21730;BME280;11027;51.030;13.812;2023-08-07T09:42:44;99390.41;;;18.24;70.74
21730;BME280;11027;51.030;13.812;2023-08-07T09:45:24;99399.19;;;18.21;70.25
21730;BME280;11027;51.030;13.812;2023-08-07T09:47:59;99406.38;;;18.22;69.90
21730;BME280;11027;51.030;13.812;2023-08-07T09:50:25;99440.13;;;18.29;69.64
21730;BME280;11027;51.030;13.812;2023-08-07T09:52:52;99387.00;;;18.33;69.08
21730;BME280;11027;51.030;13.812;2023-08-07T09:55:17;99387.44;;;18.42;69.03
21730;BME280;11027;51.030;13.812;2023-08-07T09:57:43;99409.91;;;18.51;68.61
21730;BME280;11027;51.030;13.812;2023-08-07T10:00:09;99400.06;;;18.38;67.75
21730;BME280;11027;51.030;13.812;2023-08-07T10:02:37;99398.69;;;18.24;67.95
21730;BME280;11027;51.030;13.812;2023-08-07T10:05:04;99404.63;;;18.32;69.14
21730;BME280;11027;51.030;13.812;2023-08-07T10:07:30;99406.47;;;18.27;69.09
21730;BME280;11027;51.030;13.812;2023-08-07T10:09:56;99394.34;;;18.28;69.28
21730;BME280;11027;51.030;13.812;2023-08-07T10:12:23;99398.84;;;18.34;70.01
21730;BME280;11027;51.030;13.812;2023-08-07T10:14:48;99407.53;;;18.26;69.98
21730;BME280;11027;51.030;13.812;2023-08-07T10:17:14;99405.88;;;18.25;69.39
21730;BME280;11027;51.030;13.812;2023-08-07T10:19:39;99409.06;;;18.16;68.42
21730;BME280;11027;51.030;13.812;2023-08-07T10:22:05;99419.56;;;18.19;69.45
21730;BME280;11027;51.030;13.812;2023-08-07T10:24:31;99417.31;;;18.33;68.61
21730;BME280;11027;51.030;13.812;2023-08-07T10:26:57;99414.50;;;18.45;68.44
21730;BME280;11027;51.030;13.812;2023-08-07T10:29:24;99411.25;;;18.48;67.61
21730;BME280;11027;51.030;13.812;2023-08-07T10:31:51;99430.28;;;18.33;67.73
21730;BME280;11027;51.030;13.812;2023-08-07T10:34:18;99427.09;;;18.24;68.48
21730;BME280;11027;51.030;13.812;2023-08-07T10:36:44;99434.25;;;18.08;70.29
21730;BME280;11027;51.030;13.812;2023-08-07T10:39:12;99429.44;;;17.87;73.13
21730;BME280;11027;51.030;13.812;2023-08-07T10:41:42;99431.38;;;17.46;75.47
21730;BME280;11027;51.030;13.812;2023-08-07T10:44:17;99442.63;;;17.32;77.23
21730;BME280;11027;51.030;13.812;2023-08-07T10:46:47;99418.75;;;17.21;79.11
21730;BME280;11027;51.030;13.812;2023-08-07T10:49:32;99426.41;;;17.19;79.53
21730;BME280;11027;51.030;13.812;2023-08-07T10:51:59;99419.16;;;17.42;80.23
21730;BME280;11027;51.030;13.812;2023-08-07T10:54:26;99433.56;;;17.72;80.39
21730;BME280;11027;51.030;13.812;2023-08-07T10:56:53;99416.31;;;17.65;77.20
21730;BME280;11027;51.030;13.812;2023-08-07T10:59:19;99425.47;;;17.54;77.98
21730;BME280;11027;51.030;13.812;2023-08-07T11:01:50;99429.81;;;17.38;79.52
21730;BME280;11027;51.030;13.812;2023-08-07T11:04:16;99423.59;;;17.43;80.71
21730;BME280;11027;51.030;13.812;2023-08-07T11:06:47;99425.09;;;17.62;80.64
21730;BME280;11027;51.030;13.812;2023-08-07T11:09:13;99418.53;;;17.92;79.65
21730;BME280;11027;51.030;13.812;2023-08-07T11:11:40;99414.03;;;18.19;77.89
21730;BME280;11027;51.030;13.812;2023-08-07T11:14:06;99413.75;;;18.33;76.62
21730;BME280;11027;51.030;13.812;2023-08-07T11:16:34;99414.41;;;18.57;75.54
21730;BME280;11027;51.030;13.812;2023-08-07T11:18:59;99408.03;;;18.73;74.55
21730;BME280;11027;51.030;13.812;2023-08-07T11:21:25;99430.97;;;18.91;71.19
21730;BME280;11027;51.030;13.812;2023-08-07T11:23:50;99438.22;;;18.80;68.91
21730;BME280;11027;51.030;13.812;2023-08-07T11:26:15;99427.53;;;18.84;69.37
21730;BME280;11027;51.030;13.812;2023-08-07T11:28:42;99434.94;;;19.00;68.48
21730;BME280;11027;51.030;13.812;2023-08-07T11:31:07;99408.69;;;18.97;68.71
21730;BME280;11027;51.030;13.812;2023-08-07T11:33:33;99416.88;;;18.92;68.28
21730;BME280;11027;51.030;13.812;2023-08-07T11:35:59;99422.94;;;18.89;69.02
21730;BME280;11027;51.030;13.812;2023-08-07T11:38:38;99426.13;;;18.81;69.83
21730;BME280;11027;51.030;13.812;2023-08-07T11:41:06;99430.44;;;18.77;68.62
21730;BME280;11027;51.030;13.812;2023-08-07T11:43:34;99413.56;;;18.73;69.93
21730;BME280;11027;51.030;13.812;2023-08-07T11:46:04;99418.41;;;18.66;70.74
21730;BME280;11027;51.030;13.812;2023-08-07T11:48:32;99422.59;;;18.35;71.50
21730;BME280;11027;51.030;13.812;2023-08-07T11:50:59;99431.09;;;18.16;72.73
21730;BME280;11027;51.030;13.812;2023-08-07T11:53:26;99441.94;;;18.06;73.80
21730;BME280;11027;51.030;13.812;2023-08-07T11:55:59;99446.16;;;17.97;75.51
21730;BME280;11027;51.030;13.812;2023-08-07T11:58:26;99445.38;;;17.85;78.23
21730;BME280;11027;51.030;13.812;2023-08-07T12:00:52;99438.94;;;17.67;79.34
21730;BME280;11027;51.030;13.812;2023-08-07T12:03:28;99436.94;;;17.63;79.32
21730;BME280;11027;51.030;13.812;2023-08-07T12:05:57;99436.19;;;17.67;79.50
21730;BME280;11027;51.030;13.812;2023-08-07T12:08:24;99452.88;;;17.49;79.56
21730;BME280;11027;51.030;13.812;2023-08-07T12:10:51;99464.78;;;17.37;79.57
21730;BME280;11027;51.030;13.812;2023-08-07T12:13:20;99470.16;;;17.32;81.07
21730;BME280;11027;51.030;13.812;2023-08-07T12:15:46;99462.25;;;17.48;83.14
21730;BME280;11027;51.030;13.812;2023-08-07T12:18:11;99463.50;;;17.69;84.36
21730;BME280;11027;51.030;13.812;2023-08-07T12:20:38;99454.09;;;17.93;84.15
21730;BME280;11027;51.030;13.812;2023-08-07T12:23:03;99445.13;;;18.32;83.54
21730;BME280;11027;51.030;13.812;2023-08-07T12:25:28;99451.78;;;18.65;80.96
21730;BME280;11027;51.030;13.812;2023-08-07T12:27:54;99441.16;;;18.90;80.32
21730;BME280;11027;51.030;13.812;2023-08-07T12:30:19;99441.13;;;19.07;79.54
21730;BME280;11027;51.030;13.812;2023-08-07T12:32:44;99435.78;;;19.01;79.40
21730;BME280;11027;51.030;13.812;2023-08-07T12:35:09;99437.94;;;18.98;77.37
21730;BME280;11027;51.030;13.812;2023-08-07T12:37:35;99439.34;;;18.79;73.49
21730;BME280;11027;51.030;13.812;2023-08-07T12:40:00;99449.44;;;18.56;73.16
21730;BME280;11027;51.030;13.812;2023-08-07T12:42:25;99439.25;;;18.40;73.42